sensor_id;sensor_type;location;lat;lon;timestamp;pressure;altitude;pressure_sealevel;temperature;humidity
18987;BME280;9627;59.236;18.142;2022-09-12T00:01:56;101221.47;;;8.76;100.00
18987;BME280;9627;59.236;18.142;2022-09-12T00:04:23;101211.88;;;8.75;100.00
18987;BME280;9627;59.236;18.142;2022-09-12T00:06:52;101215.13;;;8.61;100.00
18987;BME280;9627;59.236;18.142;2022-09-12T00:09:19;101208.41;;;8.41;100.00
18987;BME280;9627;59.236;18.142;2022-09-12T00:11:46;101213.81;;;8.31;100.00
18987;BME280;9627;59.236;18.142;2022-09-12T00:14:14;101208.25;;;8.34;100.00
18987;BME280;9627;59.236;18.142;2022-09-12T00:16:41;101208.59;;;8.39;100.00
18987;BME280;9627;59.236;18.142;2022-09-12T00:19:09;101215.06;;;8.45;100.00
18987;BME280;9627;59.236;18.142;2022-09-12T00:21:36;101221.00;;;8.81;100.00
18987;BME280;9627;59.236;18.142;2022-09-12T00:24:05;101216.72;;;8.88;100.00
18987;BME280;9627;59.236;18.142;2022-09-12T00:26:32;101213.19;;;8.71;100.00
18987;BME280;9627;59.236;18.142;2022-09-12T00:28:59;101222.44;;;8.67;100.00
18987;BME280;9627;59.236;18.142;2022-09-12T00:31:26;101215.47;;;8.66;100.00
18987;BME280;9627;59.236;18.142;2022-09-12T00:33:54;101215.13;;;8.61;100.00
18987;BME280;9627;59.236;18.142;2022-09-12T00:36:22;101223.16;;;8.85;100.00
18987;BME280;9627;59.236;18.142;2022-09-12T00:38:49;101212.13;;;8.98;100.00
18987;BME280;9627;59.236;18.142;2022-09-12T00:41:20;101215.53;;;8.82;100.00
18987;BME280;9627;59.236;18.142;2022-09-12T00:43:47;101216.97;;;8.69;100.00
18987;BME280;9627;59.236;18.142;2022-09-12T00:46:24;101211.81;;;8.59;100.00
18987;BME280;9627;59.236;18.142;2022-09-12T00:48:56;101194.69;;;8.37;100.00
18987;BME280;9627;59.236;18.142;2022-09-12T00:51:26;101215.09;;;8.53;100.00
18987;BME280;9627;59.236;18.142;2022-09-12T00:53:54;101218.53;;;8.46;100.00
18987;BME280;9627;59.236;18.142;2022-09-12T00:56:23;101212.34;;;8.29;100.00
18987;BME280;9627;59.236;18.142;2022-09-12T00:58:55;101207.13;;;8.19;100.00
18987;BME280;9627;59.236;18.142;2022-09-12T01:01:23;101208.72;;;8.12;100.00
18987;BME280;9627;59.236;18.142;2022-09-12T01:03:51;101212.31;;;8.03;100.00
18987;BME280;9627;59.236;18.142;2022-09-12T01:06:21;101208.50;;;7.98;100.00
18987;BME280;9627;59.236;18.142;2022-09-12T01:08:51;101209.69;;;8.03;100.00
18987;BME280;9627;59.236;18.142;2022-09-12T01:11:20;101216.16;;;8.09;100.00
18987;BME280;9627;59.236;18.142;2022-09-12T01:13:50;101201.91;;;8.02;100.00
18987;BME280;9627;59.236;18.142;2022-09-12T01:16:17;101208.03;;;8.02;100.00
18987;BME280;9627;59.236;18.142;2022-09-12T01:19:02;101211.06;;;7.90;100.00
18987;BME280;9627;59.236;18.142;2022-09-12T01:21:43;101207.97;;;7.94;100.00
18987;BME280;9627;59.236;18.142;2022-09-12T01:24:34;101211.47;;;7.95;100.00
18987;BME280;9627;59.236;18.142;2022-09-12T01:27:17;101200.44;;;7.82;100.00
18987;BME280;9627;59.236;18.142;2022-09-12T01:30:04;101198.06;;;7.71;100.00
18987;BME280;9627;59.236;18.142;2022-09-12T01:32:44;101201.69;;;7.70;100.00
18987;BME280;9627;59.236;18.142;2022-09-12T01:35:18;101192.25;;;7.67;100.00
18987;BME280;9627;59.236;18.142;2022-09-12T01:37:55;101190.53;;;7.84;100.00
18987;BME280;9627;59.236;18.142;2022-09-12T01:40:33;101188.63;;;7.94;100.00
18987;BME280;9627;59.236;18.142;2022-09-12T01:43:13;101192.50;;;7.82;100.00
18987;BME280;9627;59.236;18.142;2022-09-12T01:45:50;101193.50;;;7.81;100.00
18987;BME280;9627;59.236;18.142;2022-09-12T01:48:26;101195.13;;;7.74;100.00
18987;BME280;9627;59.236;18.142;2022-09-12T01:51:02;101175.94;;;7.72;100.00
18987;BME280;9627;59.236;18.142;2022-09-12T01:53:35;101178.19;;;7.67;100.00
18987;BME280;9627;59.236;18.142;2022-09-12T01:56:07;101193.59;;;7.71;100.00
18987;BME280;9627;59.236;18.142;2022-09-12T01:58:40;101194.50;;;7.80;100.00
18987;BME280;9627;59.236;18.142;2022-09-12T02:01:11;101194.81;;;8.02;100.00
18987;BME280;9627;59.236;18.142;2022-09-12T02:03:45;101192.16;;;8.28;100.00
18987;BME280;9627;59.236;18.142;2022-09-12T02:06:18;101188.22;;;8.32;100.00
18987;BME280;9627;59.236;18.142;2022-09-12T02:08:49;101189.88;;;8.33;100.00
18987;BME280;9627;59.236;18.142;2022-09-12T02:11:18;101189.50;;;8.28;100.00
18987;BME280;9627;59.236;18.142;2022-09-12T02:13:49;101171.53;;;8.06;100.00
18987;BME280;9627;59.236;18.142;2022-09-12T02:16:22;101188.84;;;8.00;100.00
18987;BME280;9627;59.236;18.142;2022-09-12T02:18:57;101180.69;;;7.94;100.00
18987;BME280;9627;59.236;18.142;2022-09-12T02:21:26;101169.03;;;7.79;100.00
18987;BME280;9627;59.236;18.142;2022-09-12T02:23:58;101183.88;;;7.72;100.00
18987;BME280;9627;59.236;18.142;2022-09-12T02:26:31;101185.88;;;7.52;100.00
18987;BME280;9627;59.236;18.142;2022-09-12T02:28:59;101191.97;;;7.53;100.00
18987;BME280;9627;59.236;18.142;2022-09-12T02:31:27;101188.91;;;7.39;100.00
18987;BME280;9627;59.236;18.142;2022-09-12T02:34:07;101190.41;;;7.42;100.00
18987;BME280;9627;59.236;18.142;2022-09-12T02:36:36;101179.28;;;7.56;100.00
18987;BME280;9627;59.236;18.142;2022-09-12T02:39:05;101191.16;;;7.52;100.00
18987;BME280;9627;59.236;18.142;2022-09-12T02:41:31;101183.91;;;7.36;100.00
18987;BME280;9627;59.236;18.142;2022-09-12T02:43:59;101181.00;;;7.22;100.00
18987;BME280;9627;59.236;18.142;2022-09-12T02:46:26;101186.78;;;7.25;100.00
18987;BME280;9627;59.236;18.142;2022-09-12T02:48:54;101189.75;;;7.22;100.00
18987;BME280;9627;59.236;18.142;2022-09-12T02:51:24;101188.47;;;7.09;100.00
18987;BME280;9627;59.236;18.142;2022-09-12T02:53:51;101186.03;;;6.98;100.00
18987;BME280;9627;59.236;18.142;2022-09-12T02:56:20;101184.59;;;6.86;100.00
18987;BME280;9627;59.236;18.142;2022-09-12T02:58:49;101186.03;;;6.80;100.00
18987;BME280;9627;59.236;18.142;2022-09-12T03:01:18;101185.78;;;6.74;100.00
18987;BME280;9627;59.236;18.142;2022-09-12T03:03:52;101187.03;;;6.70;100.00
18987;BME280;9627;59.236;18.142;2022-09-12T03:06:27;101190.81;;;6.67;100.00
18987;BME280;9627;59.236;18.142;2022-09-12T03:08:58;101185.00;;;6.64;100.00
18987;BME280;9627;59.236;18.142;2022-09-12T03:11:31;101188.25;;;6.57;100.00
18987;BME280;9627;59.236;18.142;2022-09-12T03:14:03;101186.56;;;6.56;100.00
18987;BME280;9627;59.236;18.142;2022-09-12T03:16:32;101189.75;;;6.60;100.00
18987;BME280;9627;59.236;18.142;2022-09-12T03:19:05;101198.06;;;6.65;100.00
18987;BME280;9627;59.236;18.142;2022-09-12T03:21:39;101192.56;;;6.76;100.00
18987;BME280;9627;59.236;18.142;2022-09-12T03:24:11;101193.09;;;6.80;100.00
18987;BME280;9627;59.236;18.142;2022-09-12T03:26:41;101197.44;;;6.71;100.00
18987;BME280;9627;59.236;18.142;2022-09-12T03:29:09;101193.53;;;6.75;100.00
18987;BME280;9627;59.236;18.142;2022-09-12T03:31:38;101194.31;;;6.85;100.00
18987;BME280;9627;59.236;18.142;2022-09-12T03:34:13;101195.09;;;6.95;100.00
18987;BME280;9627;59.236;18.142;2022-09-12T03:36:42;101199.47;;;7.04;100.00
18987;BME280;9627;59.236;18.142;2022-09-12T03:39:09;101197.94;;;7.02;100.00
18987;BME280;9627;59.236;18.142;2022-09-12T03:41:36;101199.09;;;6.99;100.00
18987;BME280;9627;59.236;18.142;2022-09-12T03:44:03;101191.84;;;7.01;100.00
18987;BME280;9627;59.236;18.142;2022-09-12T03:46:30;101188.00;;;7.13;100.00
18987;BME280;9627;59.236;18.142;2022-09-12T03:48:57;101199.38;;;7.14;100.00
18987;BME280;9627;59.236;18.142;2022-09-12T03:51:24;101197.19;;;7.27;100.00
18987;BME280;9627;59.236;18.142;2022-09-12T03:53:52;101205.19;;;7.53;100.00
18987;BME280;9627;59.236;18.142;2022-09-12T03:56:19;101195.22;;;7.64;100.00
18987;BME280;9627;59.236;18.142;2022-09-12T03:58:46;101195.97;;;7.57;100.00
18987;BME280;9627;59.236;18.142;2022-09-12T04:01:14;101195.06;;;7.48;100.00
18987;BME280;9627;59.236;18.142;2022-09-12T04:03:42;101191.75;;;7.28;100.00
18987;BME280;9627;59.236;18.142;2022-09-12T04:06:10;101194.03;;;7.41;100.00
18987;BME280;9627;59.236;18.142;2022-09-12T04:08:38;101193.78;;;7.52;100.00
18987;BME280;9627;59.236;18.142;2022-09-12T04:11:09;101198.41;;;7.50;100.00
18987;BME280;9627;59.236;18.142;2022-09-12T04:13:36;101197.19;;;7.44;100.00
18987;BME280;9627;59.236;18.142;2022-09-12T04:16:03;101206.41;;;7.40;100.00
18987;BME280;9627;59.236;18.142;2022-09-12T04:18:30;101199.06;;;7.52;100.00
18987;BME280;9627;59.236;18.142;2022-09-12T04:20:57;101195.22;;;7.64;100.00
18987;BME280;9627;59.236;18.142;2022-09-12T04:23:24;101190.50;;;7.76;100.00
18987;BME280;9627;59.236;18.142;2022-09-12T04:25:55;101200.16;;;7.85;100.00
18987;BME280;9627;59.236;18.142;2022-09-12T04:28:24;101197.50;;;7.85;100.00
18987;BME280;9627;59.236;18.142;2022-09-12T04:30:53;101205.50;;;7.93;100.00
18987;BME280;9627;59.236;18.142;2022-09-12T04:33:19;101197.66;;;8.09;100.00
18987;BME280;9627;59.236;18.142;2022-09-12T04:35:47;101201.34;;;8.24;100.00
18987;BME280;9627;59.236;18.142;2022-09-12T04:38:14;101198.25;;;8.62;100.00
18987;BME280;9627;59.236;18.142;2022-09-12T04:40:41;101197.00;;;8.82;100.00
18987;BME280;9627;59.236;18.142;2022-09-12T04:43:08;101194.56;;;8.97;100.00
18987;BME280;9627;59.236;18.142;2022-09-12T04:45:36;101191.25;;;8.95;100.00
18987;BME280;9627;59.236;18.142;2022-09-12T04:48:03;101195.09;;;9.16;100.00
18987;BME280;9627;59.236;18.142;2022-09-12T04:50:30;101204.38;;;9.69;100.00
18987;BME280;9627;59.236;18.142;2022-09-12T04:52:57;101197.78;;;9.65;100.00
18987;BME280;9627;59.236;18.142;2022-09-12T04:55:25;101189.00;;;9.64;100.00
18987;BME280;9627;59.236;18.142;2022-09-12T04:57:53;101203.00;;;10.05;100.00
18987;BME280;9627;59.236;18.142;2022-09-12T05:00:20;101196.28;;;11.33;100.00
18987;BME280;9627;59.236;18.142;2022-09-12T05:02:48;101196.56;;;11.98;100.00
18987;BME280;9627;59.236;18.142;2022-09-12T05:05:15;101200.00;;;12.86;100.00
18987;BME280;9627;59.236;18.142;2022-09-12T05:07:43;101194.00;;;13.83;100.00
18987;BME280;9627;59.236;18.142;2022-09-12T05:10:10;101187.03;;;14.44;100.00
18987;BME280;9627;59.236;18.142;2022-09-12T05:12:37;101192.59;;;14.96;100.00
18987;BME280;9627;59.236;18.142;2022-09-12T05:15:05;101187.69;;;15.06;100.00
18987;BME280;9627;59.236;18.142;2022-09-12T05:17:32;101191.25;;;15.39;100.00
18987;BME280;9627;59.236;18.142;2022-09-12T05:20:00;101191.28;;;15.46;100.00
18987;BME280;9627;59.236;18.142;2022-09-12T05:22:27;101190.84;;;16.85;100.00
18987;BME280;9627;59.236;18.142;2022-09-12T05:24:55;101182.78;;;17.22;100.00
18987;BME280;9627;59.236;18.142;2022-09-12T05:27:21;101177.66;;;16.77;100.00
18987;BME280;9627;59.236;18.142;2022-09-12T05:29:48;101182.97;;;17.27;100.00
18987;BME280;9627;59.236;18.142;2022-09-12T05:32:15;101183.34;;;16.42;100.00
18987;BME280;9627;59.236;18.142;2022-09-12T05:34:42;101182.19;;;16.76;100.00
18987;BME280;9627;59.236;18.142;2022-09-12T05:37:11;101192.44;;;17.61;100.00
18987;BME280;9627;59.236;18.142;2022-09-12T05:39:38;101184.25;;;17.99;100.00
18987;BME280;9627;59.236;18.142;2022-09-12T05:42:05;101186.25;;;18.64;100.00
18987;BME280;9627;59.236;18.142;2022-09-12T05:44:33;101186.56;;;19.04;100.00
18987;BME280;9627;59.236;18.142;2022-09-12T05:47:00;101183.06;;;19.33;100.00
18987;BME280;9627;59.236;18.142;2022-09-12T05:49:27;101194.72;;;19.68;100.00
18987;BME280;9627;59.236;18.142;2022-09-12T05:51:55;101191.66;;;19.65;100.00
18987;BME280;9627;59.236;18.142;2022-09-12T05:54:23;101194.97;;;20.48;100.00
18987;BME280;9627;59.236;18.142;2022-09-12T05:56:52;101191.50;;;21.03;100.00
18987;BME280;9627;59.236;18.142;2022-09-12T05:59:19;101190.72;;;20.91;100.00
18987;BME280;9627;59.236;18.142;2022-09-12T06:01:48;101195.03;;;19.60;100.00
18987;BME280;9627;59.236;18.142;2022-09-12T06:04:16;101182.88;;;20.50;100.00
18987;BME280;9627;59.236;18.142;2022-09-12T06:06:43;101193.63;;;21.01;100.00
18987;BME280;9627;59.236;18.142;2022-09-12T06:09:11;101196.94;;;20.92;100.00
18987;BME280;9627;59.236;18.142;2022-09-12T06:11:40;101199.69;;;21.53;100.00
18987;BME280;9627;59.236;18.142;2022-09-12T06:14:07;101194.97;;;21.93;100.00
18987;BME280;9627;59.236;18.142;2022-09-12T06:16:34;101199.75;;;22.84;100.00
18987;BME280;9627;59.236;18.142;2022-09-12T06:19:03;101197.88;;;23.33;100.00
18987;BME280;9627;59.236;18.142;2022-09-12T06:21:30;101196.56;;;23.14;100.00
18987;BME280;9627;59.236;18.142;2022-09-12T06:23:58;101196.16;;;23.27;100.00
18987;BME280;9627;59.236;18.142;2022-09-12T06:26:26;101200.19;;;22.98;100.00
18987;BME280;9627;59.236;18.142;2022-09-12T06:28:55;101203.44;;;23.00;100.00
18987;BME280;9627;59.236;18.142;2022-09-12T06:31:24;101198.41;;;21.39;100.00
18987;BME280;9627;59.236;18.142;2022-09-12T06:33:52;101199.78;;;20.11;100.00
18987;BME280;9627;59.236;18.142;2022-09-12T06:36:20;101199.63;;;20.92;100.00
18987;BME280;9627;59.236;18.142;2022-09-12T06:38:52;101200.81;;;23.05;100.00
18987;BME280;9627;59.236;18.142;2022-09-12T06:41:19;101193.72;;;24.26;100.00
18987;BME280;9627;59.236;18.142;2022-09-12T06:43:46;101202.09;;;24.71;100.00
18987;BME280;9627;59.236;18.142;2022-09-12T06:46:15;101190.28;;;25.07;100.00
18987;BME280;9627;59.236;18.142;2022-09-12T06:48:42;101182.69;;;25.14;100.00
18987;BME280;9627;59.236;18.142;2022-09-12T06:51:09;101186.53;;;25.99;100.00
18987;BME280;9627;59.236;18.142;2022-09-12T06:53:37;101184.72;;;26.73;100.00
18987;BME280;9627;59.236;18.142;2022-09-12T06:56:05;101185.75;;;27.26;100.00
18987;BME280;9627;59.236;18.142;2022-09-12T06:58:33;101171.59;;;27.24;100.00
18987;BME280;9627;59.236;18.142;2022-09-12T07:01:00;101172.25;;;26.47;100.00
18987;BME280;9627;59.236;18.142;2022-09-12T07:03:29;101176.13;;;27.38;100.00
18987;BME280;9627;59.236;18.142;2022-09-12T07:05:56;101170.81;;;27.13;100.00
18987;BME280;9627;59.236;18.142;2022-09-12T07:08:23;101178.91;;;26.01;100.00
18987;BME280;9627;59.236;18.142;2022-09-12T07:10:51;101170.22;;;26.83;100.00
18987;BME280;9627;59.236;18.142;2022-09-12T07:13:18;101171.72;;;27.76;100.00
18987;BME280;9627;59.236;18.142;2022-09-12T07:15:45;101169.91;;;27.67;100.00
18987;BME280;9627;59.236;18.142;2022-09-12T07:18:12;101173.13;;;27.69;100.00
18987;BME280;9627;59.236;18.142;2022-09-12T07:20:40;101176.69;;;28.03;100.00
18987;BME280;9627;59.236;18.142;2022-09-12T07:23:07;101167.88;;;28.58;100.00
18987;BME280;9627;59.236;18.142;2022-09-12T07:25:35;101169.41;;;28.64;100.00
18987;BME280;9627;59.236;18.142;2022-09-12T07:28:02;101173.84;;;27.50;100.00
18987;BME280;9627;59.236;18.142;2022-09-12T07:30:29;101171.13;;;26.53;100.00
18987;BME280;9627;59.236;18.142;2022-09-12T07:32:55;101169.31;;;26.97;100.00
18987;BME280;9627;59.236;18.142;2022-09-12T07:35:22;101169.47;;;27.55;100.00
18987;BME280;9627;59.236;18.142;2022-09-12T07:37:51;101167.41;;;28.70;100.00
18987;BME280;9627;59.236;18.142;2022-09-12T07:40:18;101163.56;;;29.13;95.41
18987;BME280;9627;59.236;18.142;2022-09-12T07:42:45;101161.69;;;29.46;98.97
18987;BME280;9627;59.236;18.142;2022-09-12T07:45:12;101154.53;;;28.94;99.75
18987;BME280;9627;59.236;18.142;2022-09-12T07:47:39;101161.56;;;26.60;100.00
18987;BME280;9627;59.236;18.142;2022-09-12T07:50:06;101157.72;;;25.72;100.00
18987;BME280;9627;59.236;18.142;2022-09-12T07:52:33;101158.56;;;26.72;100.00
18987;BME280;9627;59.236;18.142;2022-09-12T07:55:02;101165.75;;;28.50;100.00
18987;BME280;9627;59.236;18.142;2022-09-12T07:57:29;101158.53;;;28.35;99.19
18987;BME280;9627;59.236;18.142;2022-09-12T07:59:56;101159.81;;;29.41;94.89
18987;BME280;9627;59.236;18.142;2022-09-12T08:02:23;101157.97;;;25.31;100.00
18987;BME280;9627;59.236;18.142;2022-09-12T08:04:50;101164.81;;;25.63;100.00
18987;BME280;9627;59.236;18.142;2022-09-12T08:07:18;101161.34;;;27.06;100.00
18987;BME280;9627;59.236;18.142;2022-09-12T08:09:44;101156.50;;;27.41;100.00
18987;BME280;9627;59.236;18.142;2022-09-12T08:12:14;101152.97;;;28.88;100.00
18987;BME280;9627;59.236;18.142;2022-09-12T08:14:41;101162.16;;;27.11;92.30
18987;BME280;9627;59.236;18.142;2022-09-12T08:17:08;101167.81;;;26.66;96.63
18987;BME280;9627;59.236;18.142;2022-09-12T08:19:35;101160.31;;;28.26;100.00
18987;BME280;9627;59.236;18.142;2022-09-12T08:22:03;101151.06;;;27.99;99.17
18987;BME280;9627;59.236;18.142;2022-09-12T08:24:30;101151.03;;;28.70;98.61
18987;BME280;9627;59.236;18.142;2022-09-12T08:26:57;101156.00;;;28.44;84.65
18987;BME280;9627;59.236;18.142;2022-09-12T08:29:25;101157.22;;;26.59;85.59
18987;BME280;9627;59.236;18.142;2022-09-12T08:31:52;101159.56;;;26.86;100.00
18987;BME280;9627;59.236;18.142;2022-09-12T08:34:19;101151.63;;;27.96;95.12
18987;BME280;9627;59.236;18.142;2022-09-12T08:36:46;101152.44;;;27.68;93.42
18987;BME280;9627;59.236;18.142;2022-09-12T08:39:13;101145.56;;;28.70;94.49
18987;BME280;9627;59.236;18.142;2022-09-12T08:41:40;101140.84;;;27.52;92.47
18987;BME280;9627;59.236;18.142;2022-09-12T08:44:17;101146.56;;;25.79;100.00
18987;BME280;9627;59.236;18.142;2022-09-12T08:46:52;101141.31;;;29.01;91.17
18987;BME280;9627;59.236;18.142;2022-09-12T08:49:24;101146.75;;;27.88;100.00
18987;BME280;9627;59.236;18.142;2022-09-12T08:51:53;101146.09;;;28.72;84.77
18987;BME280;9627;59.236;18.142;2022-09-12T08:54:22;101145.94;;;27.25;99.25
18987;BME280;9627;59.236;18.142;2022-09-12T08:56:51;101139.97;;;28.37;84.64
18987;BME280;9627;59.236;18.142;2022-09-12T08:59:22;101137.75;;;29.38;97.20
18987;BME280;9627;59.236;18.142;2022-09-12T09:01:51;101135.88;;;29.65;82.33
18987;BME280;9627;59.236;18.142;2022-09-12T09:04:23;101131.72;;;29.22;90.14
18987;BME280;9627;59.236;18.142;2022-09-12T09:07:19;101139.97;;;28.61;84.21
18987;BME280;9627;59.236;18.142;2022-09-12T09:09:50;101134.78;;;28.36;98.63
18987;BME280;9627;59.236;18.142;2022-09-12T09:12:25;101127.94;;;29.18;89.60
18987;BME280;9627;59.236;18.142;2022-09-12T09:15:02;101126.94;;;28.53;80.47
18987;BME280;9627;59.236;18.142;2022-09-12T09:17:39;101131.91;;;26.59;100.00
18987;BME280;9627;59.236;18.142;2022-09-12T09:20:09;101133.81;;;27.75;100.00
18987;BME280;9627;59.236;18.142;2022-09-12T09:22:40;101128.44;;;26.43;100.00
18987;BME280;9627;59.236;18.142;2022-09-12T09:25:11;101119.44;;;27.93;100.00
18987;BME280;9627;59.236;18.142;2022-09-12T09:27:40;101118.19;;;28.93;94.56
18987;BME280;9627;59.236;18.142;2022-09-12T09:30:13;101113.97;;;25.64;97.54
18987;BME280;9627;59.236;18.142;2022-09-12T09:32:43;101121.63;;;24.45;100.00
18987;BME280;9627;59.236;18.142;2022-09-12T09:35:14;101113.16;;;25.18;100.00
18987;BME280;9627;59.236;18.142;2022-09-12T09:37:42;101106.13;;;26.41;100.00
18987;BME280;9627;59.236;18.142;2022-09-12T09:40:14;101113.09;;;24.83;100.00
18987;BME280;9627;59.236;18.142;2022-09-12T09:42:43;101111.78;;;25.36;100.00
18987;BME280;9627;59.236;18.142;2022-09-12T09:45:14;101107.88;;;26.12;100.00
18987;BME280;9627;59.236;18.142;2022-09-12T09:47:45;101111.25;;;25.64;100.00
18987;BME280;9627;59.236;18.142;2022-09-12T09:50:15;101104.38;;;24.71;100.00
18987;BME280;9627;59.236;18.142;2022-09-12T09:52:43;101113.44;;;23.41;100.00
18987;BME280;9627;59.236;18.142;2022-09-12T09:55:12;101111.34;;;23.22;100.00
18987;BME280;9627;59.236;18.142;2022-09-12T09:57:43;101117.56;;;23.22;100.00
18987;BME280;9627;59.236;18.142;2022-09-12T10:00:24;101109.53;;;23.64;100.00
18987;BME280;9627;59.236;18.142;2022-09-12T10:05:47;101106.00;;;23.63;100.00
18987;BME280;9627;59.236;18.142;2022-09-12T10:08:23;101104.91;;;23.64;100.00
18987;BME280;9627;59.236;18.142;2022-09-12T10:10:52;101103.81;;;23.29;100.00
18987;BME280;9627;59.236;18.142;2022-09-12T10:13:22;101098.28;;;22.87;100.00
18987;BME280;9627;59.236;18.142;2022-09-12T10:15:54;101096.44;;;22.66;100.00
18987;BME280;9627;59.236;18.142;2022-09-12T10:18:31;101094.72;;;23.13;100.00
18987;BME280;9627;59.236;18.142;2022-09-12T10:21:00;101099.34;;;22.38;100.00
18987;BME280;9627;59.236;18.142;2022-09-12T10:23:31;101102.59;;;21.96;100.00
18987;BME280;9627;59.236;18.142;2022-09-12T10:26:01;101089.78;;;21.54;100.00
18987;BME280;9627;59.236;18.142;2022-09-12T10:28:33;101093.56;;;21.36;100.00
18987;BME280;9627;59.236;18.142;2022-09-12T10:31:01;101089.81;;;21.37;100.00
18987;BME280;9627;59.236;18.142;2022-09-12T10:33:29;101089.47;;;20.72;100.00
18987;BME280;9627;59.236;18.142;2022-09-12T10:36:01;101088.19;;;20.63;100.00
18987;BME280;9627;59.236;18.142;2022-09-12T10:38:30;101085.22;;;21.21;100.00
18987;BME280;9627;59.236;18.142;2022-09-12T10:40:59;101089.56;;;21.39;100.00
18987;BME280;9627;59.236;18.142;2022-09-12T10:43:28;101082.84;;;21.41;100.00
18987;BME280;9627;59.236;18.142;2022-09-12T10:45:56;101085.34;;;21.64;100.00
18987;BME280;9627;59.236;18.142;2022-09-12T10:48:24;101079.06;;;21.97;100.00
18987;BME280;9627;59.236;18.142;2022-09-12T10:50:53;101070.59;;;22.32;100.00
18987;BME280;9627;59.236;18.142;2022-09-12T10:53:23;101076.28;;;22.78;100.00
18987;BME280;9627;59.236;18.142;2022-09-12T10:55:59;101084.13;;;22.10;100.00
18987;BME280;9627;59.236;18.142;2022-09-12T10:58:34;101077.44;;;21.79;100.00
18987;BME280;9627;59.236;18.142;2022-09-12T11:01:05;101074.91;;;22.54;100.00
18987;BME280;9627;59.236;18.142;2022-09-12T11:03:39;101079.94;;;22.94;100.00
18987;BME280;9627;59.236;18.142;2022-09-12T11:06:14;101082.25;;;23.39;100.00
18987;BME280;9627;59.236;18.142;2022-09-12T11:08:56;101079.31;;;23.45;100.00
18987;BME280;9627;59.236;18.142;2022-09-12T11:14:10;101071.91;;;22.51;100.00
18987;BME280;9627;59.236;18.142;2022-09-12T11:16:42;101073.25;;;22.27;100.00
18987;BME280;9627;59.236;18.142;2022-09-12T11:19:20;101068.81;;;21.61;100.00
18987;BME280;9627;59.236;18.142;2022-09-12T11:27:21;101073.78;;;21.14;100.00
18987;BME280;9627;59.236;18.142;2022-09-12T11:29:53;101067.22;;;21.27;100.00
18987;BME280;9627;59.236;18.142;2022-09-12T11:35:09;101063.94;;;21.24;100.00
18987;BME280;9627;59.236;18.142;2022-09-12T11:37:44;101067.34;;;22.30;100.00
18987;BME280;9627;59.236;18.142;2022-09-12T11:40:20;101071.00;;;22.19;100.00
18987;BME280;9627;59.236;18.142;2022-09-12T11:42:54;101072.19;;;21.01;100.00
18987;BME280;9627;59.236;18.142;2022-09-12T11:45:24;101071.13;;;20.06;100.00
18987;BME280;9627;59.236;18.142;2022-09-12T11:47:53;101076.69;;;20.68;100.00
18987;BME280;9627;59.236;18.142;2022-09-12T11:50:21;101075.75;;;19.71;100.00
18987;BME280;9627;59.236;18.142;2022-09-12T11:52:50;101072.69;;;19.79;100.00
18987;BME280;9627;59.236;18.142;2022-09-12T11:55:18;101082.03;;;19.30;100.00
18987;BME280;9627;59.236;18.142;2022-09-12T11:57:48;101076.63;;;19.19;100.00
18987;BME280;9627;59.236;18.142;2022-09-12T12:00:21;101075.78;;;19.07;100.00
18987;BME280;9627;59.236;18.142;2022-09-12T12:02:54;101073.28;;;19.35;100.00
18987;BME280;9627;59.236;18.142;2022-09-12T12:05:25;101070.97;;;18.97;100.00
18987;BME280;9627;59.236;18.142;2022-09-12T12:07:55;101073.56;;;18.63;100.00
18987;BME280;9627;59.236;18.142;2022-09-12T12:10:24;101070.25;;;18.90;100.00
18987;BME280;9627;59.236;18.142;2022-09-12T12:12:52;101069.53;;;18.83;100.00
18987;BME280;9627;59.236;18.142;2022-09-12T12:15:22;101064.91;;;18.61;100.00
18987;BME280;9627;59.236;18.142;2022-09-12T12:17:58;101070.25;;;18.49;100.00
18987;BME280;9627;59.236;18.142;2022-09-12T12:20:26;101071.28;;;18.78;100.00
18987;BME280;9627;59.236;18.142;2022-09-12T12:22:54;101069.22;;;18.62;100.00
18987;BME280;9627;59.236;18.142;2022-09-12T12:25:23;101062.91;;;18.38;100.00
18987;BME280;9627;59.236;18.142;2022-09-12T12:27:52;101061.47;;;18.53;100.00
18987;BME280;9627;59.236;18.142;2022-09-12T12:33:06;101053.56;;;18.40;100.00
18987;BME280;9627;59.236;18.142;2022-09-12T12:36:00;101063.38;;;19.06;100.00
18987;BME280;9627;59.236;18.142;2022-09-12T12:38:29;101022.44;;;18.92;100.00
18987;BME280;9627;59.236;18.142;2022-09-12T12:43:38;101047.09;;;18.89;100.00
18987;BME280;9627;59.236;18.142;2022-09-12T12:46:07;101047.75;;;19.37;100.00
18987;BME280;9627;59.236;18.142;2022-09-12T12:51:28;101050.78;;;19.64;100.00
18987;BME280;9627;59.236;18.142;2022-09-12T12:53:56;101048.44;;;19.68;100.00
18987;BME280;9627;59.236;18.142;2022-09-12T12:56:27;101046.38;;;19.35;100.00
18987;BME280;9627;59.236;18.142;2022-09-12T12:58:56;101047.06;;;19.42;100.00
18987;BME280;9627;59.236;18.142;2022-09-12T13:01:24;101035.25;;;18.79;100.00
18987;BME280;9627;59.236;18.142;2022-09-12T13:03:52;101041.69;;;18.78;100.00
18987;BME280;9627;59.236;18.142;2022-09-12T13:06:23;101034.22;;;18.80;100.00
18987;BME280;9627;59.236;18.142;2022-09-12T13:08:57;101036.56;;;18.99;100.00
18987;BME280;9627;59.236;18.142;2022-09-12T13:11:27;101038.19;;;18.77;100.00
18987;BME280;9627;59.236;18.142;2022-09-12T13:13:56;101031.91;;;18.95;100.00
18987;BME280;9627;59.236;18.142;2022-09-12T13:16:28;101031.34;;;19.16;100.00
18987;BME280;9627;59.236;18.142;2022-09-12T13:18:55;101026.41;;;19.13;100.00
18987;BME280;9627;59.236;18.142;2022-09-12T13:21:24;101038.41;;;18.76;100.00